CDR102 CYZT-CYYC
Flight info
| Callsign | CDR102 |
|---|---|
| Flight time | 1h 28m |
| Altitude | 30000 |
| Route | SOINT DCT SEATN DCT KROFT DCT MENBO Q983 IGVEP IGVEP7 |
| Aircraft | F28/M-SDFIRWY/H |
Departure
| Time | 2026-04-22 17:29 |
|---|---|
| Airport | Port Hardy Airport (CYZT) |
Arrival
| Time | 2026-04-22 18:57 |
|---|---|
| Airport | Calgary International Airport (CYYC) |
| Time | Latitude | Longitude | Altitude | Speed | Heading |
|---|---|---|---|---|---|
| 2026-04-22 17:05 | 50.68347 | -127.37596 | 60 ft | 0 kts | 125° |
| 2026-04-22 17:22 | 50.68310 | -127.37555 | 58 ft | 10 kts | 182° |
| 2026-04-22 17:23 | 50.68253 | -127.37586 | 66 ft | 10 kts | 213° |
| 2026-04-22 17:23 | 50.68069 | -127.37571 | 64 ft | 21 kts | 94° |
| 2026-04-22 17:23 | 50.68058 | -127.37335 | 69 ft | 22 kts | 94° |
| 2026-04-22 17:24 | 50.68045 | -127.37090 | 59 ft | 23 kts | 94° |
| 2026-04-22 17:24 | 50.68038 | -127.36833 | 61 ft | 24 kts | 94° |
| 2026-04-22 17:24 | 50.68027 | -127.36562 | 52 ft | 26 kts | 93° |
| 2026-04-22 17:24 | 50.68017 | -127.36267 | 46 ft | 27 kts | 96° |
| 2026-04-22 17:25 | 50.67918 | -127.36018 | 43 ft | 27 kts | 129° |
| 2026-04-22 17:25 | 50.67805 | -127.35805 | 42 ft | 21 kts | 130° |
| 2026-04-22 17:25 | 50.67734 | -127.35687 | 43 ft | 9 kts | 146° |
| 2026-04-22 17:25 | 50.67731 | -127.35665 | 42 ft | 1 kts | 47° |
| 2026-04-22 17:26 | 50.67737 | -127.35662 | 43 ft | 0 kts | 1° |
| 2026-04-22 17:26 | 50.67742 | -127.35667 | 43 ft | 1 kts | 315° |
| 2026-04-22 17:26 | 50.67753 | -127.35706 | 44 ft | 3 kts | 296° |
| 2026-04-22 17:26 | 50.67761 | -127.35722 | 44 ft | 0 kts | 311° |
| 2026-04-22 17:28 | 50.67812 | -127.35815 | 43 ft | 44 kts | 310° |
| 2026-04-22 17:28 | 50.68197 | -127.36522 | 49 ft | 122 kts | 309° |
| 2026-04-22 17:28 | 50.68829 | -127.37682 | 661 ft | 153 kts | 311° |
| 2026-04-22 17:29 | 50.69540 | -127.39014 | 1780 ft | 172 kts | 311° |
| 2026-04-22 17:29 | 50.70089 | -127.40021 | 2176 ft | 188 kts | 313° |
| 2026-04-22 17:29 | 50.71019 | -127.41646 | 2713 ft | 209 kts | 314° |
| 2026-04-22 17:29 | 50.72014 | -127.43337 | 3449 ft | 210 kts | 315° |
| 2026-04-22 17:30 | 50.73042 | -127.45035 | 4001 ft | 217 kts | 316° |
| 2026-04-22 17:30 | 50.74103 | -127.46773 | 4391 ft | 222 kts | 317° |
| 2026-04-22 17:30 | 50.75189 | -127.48515 | 4713 ft | 224 kts | 317° |
| 2026-04-22 17:30 | 50.76284 | -127.50280 | 4986 ft | 225 kts | 318° |
| 2026-04-22 17:31 | 50.77459 | -127.51873 | 5368 ft | 219 kts | 325° |
| 2026-04-22 17:31 | 50.78670 | -127.53320 | 5857 ft | 218 kts | 326° |
| 2026-04-22 17:31 | 50.79918 | -127.54772 | 6355 ft | 227 kts | 327° |
| 2026-04-22 17:31 | 50.81221 | -127.56250 | 6829 ft | 234 kts | 332° |
| 2026-04-22 17:32 | 50.82785 | -127.56888 | 7268 ft | 237 kts | 3° |
| 2026-04-22 17:32 | 50.84289 | -127.55994 | 7663 ft | 236 kts | 33° |
| 2026-04-22 17:32 | 50.85425 | -127.54153 | 8054 ft | 229 kts | 43° |
| 2026-04-22 17:32 | 50.86420 | -127.52225 | 8428 ft | 224 kts | 45° |
| 2026-04-22 17:33 | 50.87351 | -127.50245 | 8798 ft | 230 kts | 53° |
| 2026-04-22 17:33 | 50.87843 | -127.47717 | 9204 ft | 249 kts | 72° |
| 2026-04-22 17:33 | 50.88115 | -127.44961 | 9613 ft | 258 kts | 75° |
| 2026-04-22 17:33 | 50.88350 | -127.42090 | 10023 ft | 268 kts | 76° |
| 2026-04-22 17:34 | 50.88575 | -127.39137 | 10394 ft | 279 kts | 76° |
| 2026-04-22 17:34 | 50.88810 | -127.35964 | 10779 ft | 294 kts | 78° |
| 2026-04-22 17:34 | 50.88875 | -127.32687 | 11230 ft | 307 kts | 84° |
| 2026-04-22 17:34 | 50.88819 | -127.29246 | 11970 ft | 308 kts | 86° |
| 2026-04-22 17:35 | 50.88725 | -127.25915 | 12762 ft | 305 kts | 86° |
| 2026-04-22 17:35 | 50.88624 | -127.22573 | 13583 ft | 302 kts | 86° |
| 2026-04-22 17:35 | 50.88528 | -127.19275 | 14303 ft | 299 kts | 86° |
| 2026-04-22 17:35 | 50.88451 | -127.16001 | 14961 ft | 296 kts | 85° |
| 2026-04-22 17:36 | 50.88381 | -127.12770 | 15645 ft | 291 kts | 85° |
| 2026-04-22 17:36 | 50.88322 | -127.09542 | 16120 ft | 296 kts | 85° |
| 2026-04-22 17:36 | 50.88269 | -127.06245 | 16551 ft | 302 kts | 85° |
| 2026-04-22 17:36 | 50.88213 | -127.02891 | 17014 ft | 307 kts | 86° |
| 2026-04-22 17:37 | 50.88150 | -126.99483 | 17489 ft | 312 kts | 86° |
| 2026-04-22 17:37 | 50.88089 | -126.96020 | 17954 ft | 316 kts | 86° |
| 2026-04-22 17:37 | 50.88028 | -126.92517 | 18419 ft | 320 kts | 86° |
| 2026-04-22 17:37 | 50.87956 | -126.88978 | 18814 ft | 323 kts | 87° |
| 2026-04-22 17:38 | 50.87874 | -126.85399 | 19210 ft | 327 kts | 87° |
| 2026-04-22 17:38 | 50.87791 | -126.81772 | 19576 ft | 332 kts | 87° |
| 2026-04-22 17:38 | 50.87707 | -126.78105 | 19950 ft | 336 kts | 87° |
| 2026-04-22 17:38 | 50.87624 | -126.74388 | 20335 ft | 339 kts | 87° |
| 2026-04-22 17:39 | 50.87540 | -126.70637 | 20699 ft | 343 kts | 88° |
| 2026-04-22 17:39 | 50.87465 | -126.66855 | 21043 ft | 345 kts | 87° |
| 2026-04-22 17:39 | 50.87301 | -126.59210 | 21833 ft | 350 kts | 87° |
| 2026-04-22 17:40 | 50.87218 | -126.55351 | 22253 ft | 352 kts | 87° |
| 2026-04-22 17:40 | 50.87137 | -126.51474 | 22673 ft | 353 kts | 87° |
| 2026-04-22 17:40 | 50.87055 | -126.47579 | 23105 ft | 355 kts | 87° |
| 2026-04-22 17:40 | 50.86975 | -126.43674 | 23552 ft | 356 kts | 87° |
| 2026-04-22 17:41 | 50.86894 | -126.39758 | 23948 ft | 356 kts | 87° |
| 2026-04-22 17:41 | 50.86810 | -126.35826 | 24310 ft | 357 kts | 87° |
| 2026-04-22 17:41 | 50.86720 | -126.31906 | 24664 ft | 357 kts | 87° |
| 2026-04-22 17:41 | 50.86626 | -126.27978 | 25019 ft | 357 kts | 87° |
| 2026-04-22 17:42 | 50.86527 | -126.24059 | 25378 ft | 356 kts | 87° |
| 2026-04-22 17:42 | 50.86424 | -126.20151 | 25769 ft | 355 kts | 87° |
| 2026-04-22 17:42 | 50.86316 | -126.16251 | 26115 ft | 354 kts | 87° |
| 2026-04-22 17:42 | 50.86202 | -126.12359 | 26515 ft | 353 kts | 87° |
| 2026-04-22 17:43 | 50.86086 | -126.08496 | 26903 ft | 351 kts | 87° |
| 2026-04-22 17:43 | 50.85984 | -126.04652 | 27281 ft | 348 kts | 86° |
| 2026-04-22 17:43 | 50.85887 | -126.00837 | 27679 ft | 346 kts | 86° |
| 2026-04-22 17:43 | 50.85791 | -125.97041 | 28025 ft | 345 kts | 86° |
| 2026-04-22 17:44 | 50.85691 | -125.93251 | 28366 ft | 344 kts | 86° |
| 2026-04-22 17:44 | 50.85589 | -125.89469 | 28700 ft | 344 kts | 86° |
| 2026-04-22 17:44 | 50.85483 | -125.85696 | 29037 ft | 343 kts | 86° |
| 2026-04-22 17:44 | 50.85373 | -125.81937 | 29345 ft | 341 kts | 86° |
| 2026-04-22 17:45 | 50.85256 | -125.78198 | 29614 ft | 339 kts | 86° |
| 2026-04-22 17:45 | 50.85144 | -125.74485 | 29934 ft | 339 kts | 86° |
| 2026-04-22 17:45 | 50.85027 | -125.70727 | 30045 ft | 345 kts | 86° |
| 2026-04-22 17:46 | 50.84797 | -125.62975 | 30037 ft | 360 kts | 86° |
| 2026-04-22 17:46 | 50.84579 | -125.54933 | 30058 ft | 376 kts | 86° |
| 2026-04-22 17:47 | 50.84326 | -125.46483 | 30046 ft | 392 kts | 87° |
| 2026-04-22 17:47 | 50.84050 | -125.37729 | 30037 ft | 405 kts | 87° |
| 2026-04-22 17:48 | 50.83805 | -125.30191 | 30019 ft | 415 kts | 88° |
| 2026-04-22 17:48 | 50.83405 | -125.19456 | 30026 ft | 426 kts | 88° |
| 2026-04-22 17:49 | 50.83068 | -125.10024 | 29980 ft | 433 kts | 88° |
| 2026-04-22 17:49 | 50.82733 | -125.00424 | 29988 ft | 441 kts | 88° |
| 2026-04-22 17:50 | 50.82382 | -124.90749 | 29966 ft | 440 kts | 88° |
| 2026-04-22 17:50 | 50.82032 | -124.81161 | 30017 ft | 431 kts | 88° |
| 2026-04-22 17:51 | 50.81680 | -124.71750 | 30001 ft | 431 kts | 88° |
| 2026-04-22 17:51 | 50.81329 | -124.62203 | 30002 ft | 439 kts | 88° |
| 2026-04-22 17:52 | 50.80977 | -124.52485 | 30031 ft | 447 kts | 88° |
| 2026-04-22 17:52 | 50.80564 | -124.42604 | 30005 ft | 454 kts | 89° |
| 2026-04-22 17:53 | 50.80146 | -124.32817 | 29999 ft | 437 kts | 88° |
| 2026-04-22 17:53 | 50.79775 | -124.23259 | 30010 ft | 437 kts | 88° |
| 2026-04-22 17:54 | 50.79351 | -124.13661 | 30019 ft | 439 kts | 89° |
| 2026-04-22 17:54 | 50.78914 | -124.04015 | 30028 ft | 441 kts | 89° |
| 2026-04-22 17:55 | 50.78557 | -123.95979 | 30025 ft | 440 kts | 89° |
| 2026-04-22 17:55 | 50.78055 | -123.84795 | 30042 ft | 432 kts | 89° |
| 2026-04-22 17:56 | 50.77624 | -123.75406 | 30017 ft | 427 kts | 89° |
| 2026-04-22 17:56 | 50.77201 | -123.66017 | 30010 ft | 430 kts | 89° |
| 2026-04-22 17:57 | 50.76783 | -123.56617 | 30035 ft | 433 kts | 89° |
| 2026-04-22 17:57 | 50.76314 | -123.47076 | 30030 ft | 437 kts | 90° |
| 2026-04-22 17:58 | 50.75824 | -123.37486 | 30026 ft | 439 kts | 89° |
| 2026-04-22 17:58 | 50.75331 | -123.27893 | 30031 ft | 437 kts | 90° |
| 2026-04-22 17:59 | 50.74840 | -123.18356 | 30045 ft | 435 kts | 90° |
| 2026-04-22 17:59 | 50.74359 | -123.08840 | 30036 ft | 434 kts | 90° |
| 2026-04-22 18:00 | 50.73972 | -123.00878 | 30035 ft | 434 kts | 90° |
| 2026-04-22 18:00 | 50.73381 | -122.89865 | 30018 ft | 432 kts | 91° |
| 2026-04-22 18:01 | 50.72863 | -122.80413 | 30008 ft | 432 kts | 91° |
| 2026-04-22 18:01 | 50.72359 | -122.70904 | 30008 ft | 439 kts | 91° |
| 2026-04-22 18:02 | 50.71818 | -122.61220 | 30011 ft | 446 kts | 91° |
| 2026-04-22 18:02 | 50.71268 | -122.51417 | 29988 ft | 450 kts | 92° |
| 2026-04-22 18:03 | 50.70714 | -122.41639 | 29977 ft | 445 kts | 92° |
| 2026-04-22 18:03 | 50.70399 | -122.31941 | 29950 ft | 440 kts | 88° |
| 2026-04-22 18:04 | 50.70394 | -122.22292 | 29981 ft | 442 kts | 86° |
| 2026-04-22 18:04 | 50.70454 | -122.12550 | 29975 ft | 446 kts | 86° |
| 2026-04-22 18:05 | 50.70483 | -122.02720 | 29978 ft | 450 kts | 87° |
| 2026-04-22 18:05 | 50.70480 | -121.92808 | 29934 ft | 453 kts | 88° |
| 2026-04-22 18:06 | 50.70438 | -121.82840 | 29956 ft | 456 kts | 88° |
| 2026-04-22 18:06 | 50.70405 | -121.72805 | 29945 ft | 459 kts | 89° |
| 2026-04-22 18:07 | 50.70395 | -121.64417 | 29944 ft | 461 kts | 89° |
| 2026-04-22 18:07 | 50.70374 | -121.52568 | 29955 ft | 464 kts | 89° |
| 2026-04-22 18:08 | 50.70338 | -121.42363 | 29924 ft | 466 kts | 90° |
| 2026-04-22 18:08 | 50.70230 | -121.32134 | 29925 ft | 467 kts | 92° |
| 2026-04-22 18:09 | 50.69914 | -121.21957 | 29945 ft | 461 kts | 94° |
| 2026-04-22 18:09 | 50.69510 | -121.11967 | 29927 ft | 453 kts | 95° |
| 2026-04-22 18:10 | 50.69063 | -121.02056 | 29930 ft | 453 kts | 95° |
| 2026-04-22 18:10 | 50.68626 | -120.92132 | 29899 ft | 454 kts | 96° |
| 2026-04-22 18:11 | 50.68297 | -120.83868 | 29917 ft | 455 kts | 95° |
| 2026-04-22 18:11 | 50.67894 | -120.73909 | 29914 ft | 456 kts | 96° |
| 2026-04-22 18:12 | 50.67471 | -120.63936 | 29905 ft | 456 kts | 97° |
| 2026-04-22 18:12 | 50.67013 | -120.53950 | 29914 ft | 457 kts | 97° |
| 2026-04-22 18:13 | 50.66558 | -120.43955 | 29907 ft | 457 kts | 97° |
| 2026-04-22 18:13 | 50.66107 | -120.33951 | 29893 ft | 457 kts | 98° |
| 2026-04-22 18:14 | 50.65639 | -120.23963 | 29883 ft | 457 kts | 98° |
| 2026-04-22 18:14 | 50.65171 | -120.14005 | 29867 ft | 454 kts | 99° |
| 2026-04-22 18:15 | 50.64677 | -120.04094 | 29852 ft | 453 kts | 99° |
| 2026-04-22 18:15 | 50.64200 | -119.94195 | 29846 ft | 452 kts | 99° |
| 2026-04-22 18:16 | 50.63687 | -119.84335 | 29851 ft | 452 kts | 100° |
| 2026-04-22 18:16 | 50.63157 | -119.74477 | 29846 ft | 452 kts | 100° |
| 2026-04-22 18:17 | 50.62650 | -119.64607 | 29839 ft | 452 kts | 100° |
| 2026-04-22 18:17 | 50.62129 | -119.54737 | 29839 ft | 453 kts | 100° |
| 2026-04-22 18:18 | 50.61596 | -119.44867 | 29828 ft | 453 kts | 100° |
| 2026-04-22 18:18 | 50.61072 | -119.34991 | 29807 ft | 452 kts | 99° |
| 2026-04-22 18:19 | 50.60537 | -119.25046 | 29821 ft | 452 kts | 100° |
| 2026-04-22 18:19 | 50.60008 | -119.15289 | 29803 ft | 448 kts | 100° |
| 2026-04-22 18:20 | 50.59458 | -119.05632 | 29810 ft | 439 kts | 101° |
| 2026-04-22 18:20 | 50.58908 | -118.96119 | 29810 ft | 438 kts | 100° |
| 2026-04-22 18:21 | 50.58370 | -118.86540 | 29801 ft | 441 kts | 100° |
| 2026-04-22 18:21 | 50.57791 | -118.76905 | 29800 ft | 444 kts | 100° |
| 2026-04-22 18:22 | 50.57210 | -118.67222 | 29795 ft | 446 kts | 100° |
| 2026-04-22 18:22 | 50.56616 | -118.57495 | 29781 ft | 448 kts | 100° |
| 2026-04-22 18:23 | 50.56011 | -118.47741 | 29776 ft | 449 kts | 99° |
| 2026-04-22 18:23 | 50.55396 | -118.37966 | 29783 ft | 450 kts | 100° |
| 2026-04-22 18:24 | 50.54469 | -118.23467 | 29767 ft | 437 kts | 100° |
| 2026-04-22 18:25 | 50.53527 | -118.09333 | 29784 ft | 434 kts | 100° |
| 2026-04-22 18:25 | 50.52920 | -117.99899 | 29748 ft | 438 kts | 100° |
| 2026-04-22 18:26 | 50.51937 | -117.85551 | 29764 ft | 443 kts | 100° |
| 2026-04-22 18:26 | 50.51279 | -117.75928 | 29773 ft | 441 kts | 100° |
| 2026-04-22 18:27 | 50.50601 | -117.66422 | 29764 ft | 436 kts | 100° |
| 2026-04-22 18:27 | 50.49949 | -117.57004 | 29774 ft | 432 kts | 100° |
| 2026-04-22 18:28 | 50.49279 | -117.47678 | 29731 ft | 427 kts | 100° |
| 2026-04-22 18:28 | 50.48620 | -117.38429 | 29728 ft | 427 kts | 100° |
| 2026-04-22 18:29 | 50.47932 | -117.29121 | 29731 ft | 431 kts | 100° |
| 2026-04-22 18:29 | 50.47234 | -117.19735 | 29716 ft | 434 kts | 100° |
| 2026-04-22 18:30 | 50.46205 | -117.05521 | 29748 ft | 440 kts | 100° |
| 2026-04-22 18:31 | 50.45479 | -116.95964 | 29703 ft | 443 kts | 100° |
| 2026-04-22 18:31 | 50.44743 | -116.86355 | 29670 ft | 446 kts | 100° |
| 2026-04-22 18:32 | 50.44015 | -116.76882 | 29519 ft | 428 kts | 100° |
| 2026-04-22 18:32 | 50.43660 | -116.72258 | 29071 ft | 427 kts | 100° |
| 2026-04-22 18:32 | 50.43298 | -116.67636 | 28562 ft | 427 kts | 100° |
| 2026-04-22 18:32 | 50.42928 | -116.63018 | 28076 ft | 426 kts | 100° |
| 2026-04-22 18:33 | 50.42571 | -116.58409 | 27588 ft | 426 kts | 99° |
| 2026-04-22 18:33 | 50.42217 | -116.53809 | 27083 ft | 426 kts | 99° |
| 2026-04-22 18:33 | 50.41857 | -116.49194 | 26567 ft | 425 kts | 99° |
| 2026-04-22 18:33 | 50.41489 | -116.44597 | 26082 ft | 425 kts | 99° |
| 2026-04-22 18:34 | 50.41114 | -116.39999 | 25604 ft | 425 kts | 99° |
| 2026-04-22 18:34 | 50.40739 | -116.35409 | 25144 ft | 424 kts | 98° |
| 2026-04-22 18:34 | 50.40373 | -116.30822 | 24679 ft | 424 kts | 98° |
| 2026-04-22 18:34 | 50.40008 | -116.26238 | 24226 ft | 423 kts | 98° |
| 2026-04-22 18:35 | 50.39641 | -116.21671 | 23781 ft | 422 kts | 98° |
| 2026-04-22 18:35 | 50.39293 | -116.17111 | 23256 ft | 422 kts | 94° |
| 2026-04-22 18:35 | 50.39518 | -116.12524 | 22612 ft | 424 kts | 79° |
| 2026-04-22 18:35 | 50.40228 | -116.08059 | 22246 ft | 419 kts | 73° |
| 2026-04-22 18:36 | 50.41114 | -116.03742 | 21893 ft | 412 kts | 71° |
| 2026-04-22 18:36 | 50.42055 | -115.99616 | 21548 ft | 404 kts | 70° |
| 2026-04-22 18:36 | 50.43023 | -115.95469 | 21199 ft | 396 kts | 70° |
| 2026-04-22 18:36 | 50.43956 | -115.91452 | 20861 ft | 388 kts | 70° |
| 2026-04-22 18:37 | 50.44840 | -115.87563 | 20535 ft | 380 kts | 71° |
| 2026-04-22 18:37 | 50.45703 | -115.83699 | 20202 ft | 371 kts | 71° |
| 2026-04-22 18:37 | 50.46275 | -115.81130 | 19993 ft | 367 kts | 71° |
| 2026-04-22 18:37 | 50.47371 | -115.76183 | 19584 ft | 358 kts | 71° |
| 2026-04-22 18:38 | 50.48163 | -115.72523 | 19262 ft | 351 kts | 71° |
| 2026-04-22 18:38 | 50.48946 | -115.68867 | 18943 ft | 357 kts | 72° |
| 2026-04-22 18:38 | 50.49743 | -115.65144 | 18649 ft | 363 kts | 72° |
| 2026-04-22 18:39 | 50.51386 | -115.57551 | 18077 ft | 369 kts | 72° |
| 2026-04-22 18:39 | 50.52213 | -115.53721 | 17810 ft | 371 kts | 72° |
| 2026-04-22 18:39 | 50.53041 | -115.49879 | 17508 ft | 371 kts | 72° |
| 2026-04-22 18:39 | 50.53867 | -115.46037 | 17239 ft | 372 kts | 72° |
| 2026-04-22 18:40 | 50.54695 | -115.42175 | 16957 ft | 373 kts | 72° |
| 2026-04-22 18:40 | 50.55526 | -115.38311 | 16712 ft | 372 kts | 71° |
| 2026-04-22 18:40 | 50.56353 | -115.34472 | 16508 ft | 369 kts | 71° |
| 2026-04-22 18:40 | 50.57170 | -115.30658 | 16312 ft | 366 kts | 71° |
| 2026-04-22 18:41 | 50.57974 | -115.26880 | 16140 ft | 364 kts | 71° |
| 2026-04-22 18:41 | 50.58771 | -115.23110 | 15908 ft | 362 kts | 71° |
| 2026-04-22 18:41 | 50.59566 | -115.19392 | 15743 ft | 356 kts | 71° |
| 2026-04-22 18:41 | 50.60352 | -115.15715 | 15590 ft | 353 kts | 71° |
| 2026-04-22 18:42 | 50.61126 | -115.12060 | 15435 ft | 351 kts | 71° |
| 2026-04-22 18:42 | 50.61888 | -115.08427 | 15268 ft | 348 kts | 71° |
| 2026-04-22 18:42 | 50.62659 | -115.04818 | 15106 ft | 347 kts | 71° |
| 2026-04-22 18:42 | 50.63434 | -115.01230 | 14939 ft | 345 kts | 71° |
| 2026-04-22 18:43 | 50.64196 | -114.97642 | 14663 ft | 348 kts | 71° |
| 2026-04-22 18:43 | 50.64961 | -114.94018 | 14281 ft | 349 kts | 71° |
| 2026-04-22 18:43 | 50.65732 | -114.90378 | 13902 ft | 351 kts | 70° |
| 2026-04-22 18:43 | 50.66504 | -114.86719 | 13528 ft | 352 kts | 70° |
| 2026-04-22 18:44 | 50.67274 | -114.83054 | 13167 ft | 350 kts | 71° |
| 2026-04-22 18:44 | 50.68020 | -114.79466 | 13084 ft | 339 kts | 71° |
| 2026-04-22 18:44 | 50.68735 | -114.76007 | 13047 ft | 325 kts | 71° |
| 2026-04-22 18:44 | 50.69424 | -114.72679 | 13037 ft | 314 kts | 70° |
| 2026-04-22 18:45 | 50.70084 | -114.69462 | 13025 ft | 303 kts | 70° |
| 2026-04-22 18:45 | 50.70755 | -114.66372 | 13020 ft | 293 kts | 63° |
| 2026-04-22 18:45 | 50.71894 | -114.63762 | 13040 ft | 287 kts | 47° |
| 2026-04-22 18:45 | 50.73235 | -114.61459 | 13035 ft | 283 kts | 43° |
| 2026-04-22 18:46 | 50.74631 | -114.59239 | 12700 ft | 288 kts | 42° |
| 2026-04-22 18:46 | 50.76073 | -114.56991 | 12044 ft | 289 kts | 41° |
| 2026-04-22 18:46 | 50.77476 | -114.54800 | 11410 ft | 279 kts | 41° |
| 2026-04-22 18:46 | 50.78827 | -114.52663 | 10790 ft | 271 kts | 42° |
| 2026-04-22 18:47 | 50.80120 | -114.50596 | 10181 ft | 264 kts | 41° |
| 2026-04-22 18:47 | 50.81300 | -114.48728 | 9629 ft | 265 kts | 40° |
| 2026-04-22 18:47 | 50.82688 | -114.46606 | 9151 ft | 270 kts | 40° |
| 2026-04-22 18:47 | 50.84026 | -114.44573 | 9063 ft | 263 kts | 40° |
| 2026-04-22 18:48 | 50.85331 | -114.42597 | 9035 ft | 255 kts | 40° |
| 2026-04-22 18:48 | 50.86597 | -114.40673 | 9031 ft | 249 kts | 39° |
| 2026-04-22 18:48 | 50.87835 | -114.38790 | 9005 ft | 245 kts | 39° |
| 2026-04-22 18:48 | 50.89009 | -114.36864 | 9021 ft | 245 kts | 50° |
| 2026-04-22 18:49 | 50.89664 | -114.34236 | 8393 ft | 274 kts | 76° |
| 2026-04-22 18:49 | 50.89818 | -114.31188 | 8229 ft | 274 kts | 82° |
| 2026-04-22 18:49 | 50.89910 | -114.28228 | 8302 ft | 264 kts | 81° |
| 2026-04-22 18:49 | 50.90032 | -114.25372 | 8363 ft | 256 kts | 79° |
| 2026-04-22 18:50 | 50.90209 | -114.22609 | 8444 ft | 249 kts | 77° |
| 2026-04-22 18:50 | 50.90436 | -114.19921 | 8504 ft | 244 kts | 75° |
| 2026-04-22 18:50 | 50.90694 | -114.17289 | 8556 ft | 240 kts | 74° |
| 2026-04-22 18:50 | 50.90974 | -114.14693 | 8586 ft | 238 kts | 73° |
| 2026-04-22 18:51 | 50.91278 | -114.12089 | 8425 ft | 245 kts | 73° |
| 2026-04-22 18:51 | 50.91612 | -114.09377 | 8163 ft | 256 kts | 72° |
| 2026-04-22 18:51 | 50.91977 | -114.06561 | 7884 ft | 265 kts | 71° |
| 2026-04-22 18:51 | 50.92361 | -114.03675 | 7610 ft | 270 kts | 72° |
| 2026-04-22 18:52 | 50.92811 | -114.00779 | 7342 ft | 268 kts | 60° |
| 2026-04-22 18:52 | 50.93796 | -113.98725 | 7112 ft | 201 kts | 29° |
| 2026-04-22 18:52 | 50.94941 | -113.98228 | 6813 ft | 154 kts | 352° |
| 2026-04-22 18:52 | 50.95915 | -113.98458 | 6579 ft | 131 kts | 351° |
| 2026-04-22 18:53 | 50.96494 | -113.98597 | 6435 ft | 129 kts | 352° |
| 2026-04-22 18:53 | 50.97468 | -113.98813 | 6285 ft | 153 kts | 353° |
| 2026-04-22 18:53 | 50.98972 | -113.99037 | 6017 ft | 168 kts | 357° |
| 2026-04-22 18:53 | 51.00143 | -113.99072 | 5778 ft | 162 kts | 359° |
| 2026-04-22 18:54 | 51.00847 | -113.99069 | 5620 ft | 143 kts | 359° |
| 2026-04-22 18:54 | 51.01755 | -113.99056 | 5419 ft | 118 kts | 359° |
| 2026-04-22 18:54 | 51.02523 | -113.99042 | 5284 ft | 112 kts | 358° |
| 2026-04-22 18:54 | 51.03323 | -113.99039 | 5132 ft | 119 kts | 358° |
| 2026-04-22 18:55 | 51.04171 | -113.99031 | 4981 ft | 121 kts | 358° |
| 2026-04-22 18:55 | 51.04986 | -113.99034 | 4820 ft | 115 kts | 359° |
| 2026-04-22 18:55 | 51.05791 | -113.99026 | 4656 ft | 116 kts | 359° |
| 2026-04-22 18:55 | 51.06600 | -113.99020 | 4486 ft | 115 kts | 358° |
| 2026-04-22 18:56 | 51.07388 | -113.99015 | 4355 ft | 113 kts | 357° |
| 2026-04-22 18:56 | 51.08181 | -113.99029 | 4228 ft | 114 kts | 359° |
| 2026-04-22 18:56 | 51.08965 | -113.99025 | 4056 ft | 113 kts | 358° |
| 2026-04-22 18:56 | 51.09762 | -113.99037 | 3886 ft | 114 kts | 1° |
| 2026-04-22 18:57 | 51.10545 | -113.99036 | 3723 ft | 112 kts | 0° |
| 2026-04-22 18:57 | 51.11308 | -113.99037 | 3581 ft | 99 kts | 360° |
| 2026-04-22 18:57 | 51.11832 | -113.99035 | 3562 ft | 57 kts | 0° |
| 2026-04-22 18:57 | 51.12153 | -113.99036 | 3563 ft | 36 kts | 356° |
| 2026-04-22 18:58 | 51.12351 | -113.99097 | 3557 ft | 23 kts | 336° |
| 2026-04-22 18:58 | 51.12457 | -113.99185 | 3558 ft | 13 kts | 330° |
| 2026-04-22 18:58 | 51.12493 | -113.99220 | 3557 ft | 0 kts | 328° |
| 2026-04-22 18:59 | 51.12495 | -113.99221 | 3555 ft | 1 kts | 328° |
| 2026-04-22 18:59 | 51.12522 | -113.99247 | 3559 ft | 7 kts | 329° |
| 2026-04-22 18:59 | 51.12579 | -113.99301 | 3558 ft | 12 kts | 328° |
| 2026-04-22 19:00 | 51.12613 | -113.99453 | 3557 ft | 20 kts | 269° |
| 2026-04-22 19:00 | 51.12614 | -113.99686 | 3557 ft | 21 kts | 271° |
| 2026-04-22 19:00 | 51.12613 | -113.99901 | 3557 ft | 18 kts | 269° |
| 2026-04-22 19:00 | 51.12613 | -114.00095 | 3557 ft | 17 kts | 271° |
| 2026-04-22 19:01 | 51.12614 | -114.00269 | 3557 ft | 15 kts | 270° |
| 2026-04-22 19:01 | 51.12613 | -114.00434 | 3557 ft | 15 kts | 269° |
| 2026-04-22 19:01 | 51.12614 | -114.00605 | 3557 ft | 15 kts | 270° |
| 2026-04-22 19:01 | 51.12613 | -114.00775 | 3557 ft | 15 kts | 271° |
| 2026-04-22 19:02 | 51.12614 | -114.00946 | 3557 ft | 16 kts | 271° |
| 2026-04-22 19:02 | 51.12608 | -114.01123 | 3557 ft | 16 kts | 265° |
| 2026-04-22 19:02 | 51.12603 | -114.01304 | 3557 ft | 17 kts | 270° |
| 2026-04-22 19:02 | 51.12603 | -114.01489 | 3557 ft | 17 kts | 269° |
| 2026-04-22 19:03 | 51.12611 | -114.01655 | 3555 ft | 13 kts | 310° |
| 2026-04-22 19:03 | 51.12681 | -114.01680 | 3555 ft | 8 kts | 1° |
| 2026-04-22 19:03 | 51.12726 | -114.01680 | 3557 ft | 5 kts | 359° |
| 2026-04-22 19:03 | 51.12751 | -114.01680 | 3554 ft | 6 kts | 360° |
| 2026-04-22 19:04 | 51.12824 | -114.01680 | 3557 ft | 15 kts | 0° |
| 2026-04-22 19:04 | 51.12950 | -114.01680 | 3555 ft | 20 kts | 360° |
| 2026-04-22 19:04 | 51.13071 | -114.01680 | 3557 ft | 15 kts | 0° |
| 2026-04-22 19:04 | 51.13147 | -114.01651 | 3553 ft | 9 kts | 54° |
| 2026-04-22 19:05 | 51.13154 | -114.01546 | 3557 ft | 10 kts | 91° |
| 2026-04-22 19:05 | 51.13154 | -114.01501 | 3557 ft | 0 kts | 90° |
| 2026-04-22 19:06 | 51.13159 | -114.01468 | 3553 ft | 4 kts | 49° |
| 2026-04-22 19:06 | 51.13188 | -114.01459 | 3557 ft | 6 kts | 359° |
| 2026-04-22 19:07 | 51.13234 | -114.01454 | 3557 ft | 2 kts | 37° |
| 2026-04-22 19:07 | 51.13238 | -114.01448 | 3555 ft | 0 kts | 46° |
| 2026-04-22 19:07 | 51.13239 | -114.01447 | 3555 ft | 0 kts | 46° |